createdAt,value
2022-12-11T00:00:28.234Z,-1.10
2022-12-11T00:02:56.766Z,-1.10
2022-12-11T00:05:25.191Z,-1.00
2022-12-11T00:07:54.884Z,-1.10
2022-12-11T00:10:22.942Z,-1.10
2022-12-11T00:12:50.967Z,-1.10
2022-12-11T00:15:19.020Z,-1.20
2022-12-11T00:17:47.024Z,-1.20
2022-12-11T00:20:15.063Z,-1.30
2022-12-11T00:22:43.078Z,-1.30
2022-12-11T00:25:12.650Z,-1.30
2022-12-11T00:27:40.852Z,-1.40
2022-12-11T00:30:10.070Z,-1.40
2022-12-11T00:32:38.079Z,-1.30
2022-12-11T00:35:06.752Z,-1.40
2022-12-11T00:37:34.794Z,-1.40
2022-12-11T00:40:02.879Z,-1.40
2022-12-11T00:42:32.245Z,-1.50
2022-12-11T00:45:00.278Z,-1.50
2022-12-11T00:47:28.285Z,-1.50
2022-12-11T00:49:56.325Z,-1.60
2022-12-11T00:52:24.792Z,-1.70
2022-12-11T00:54:52.823Z,-1.70
2022-12-11T00:57:20.848Z,-1.80
2022-12-11T00:59:50.315Z,-1.70
2022-12-11T01:02:18.251Z,-1.70
2022-12-11T01:04:46.293Z,-1.70
2022-12-11T01:07:14.415Z,-1.70
2022-12-11T01:09:59.972Z,-1.60
2022-12-11T01:12:28.646Z,-1.60
2022-12-11T01:14:58.040Z,-1.60
2022-12-11T01:17:26.065Z,-1.60
2022-12-11T01:19:54.948Z,-1.60
2022-12-11T01:22:23.032Z,-1.60
2022-12-11T01:24:51.186Z,-1.60
2022-12-11T01:27:19.200Z,-1.60
2022-12-11T01:29:47.231Z,-1.70
2022-12-11T01:32:16.604Z,-1.60
2022-12-11T01:34:44.644Z,-1.60
2022-12-11T01:37:12.666Z,-1.70
2022-12-11T01:39:40.721Z,-1.70
2022-12-11T01:42:11.364Z,-1.70
2022-12-11T01:45:27.052Z,-1.70
2022-12-11T01:47:58.397Z,-1.60
2022-12-11T01:50:26.501Z,-1.80
2022-12-11T01:52:54.518Z,-1.80
2022-12-11T01:55:22.580Z,-1.80
2022-12-11T01:57:50.920Z,-1.80
2022-12-11T02:00:19.215Z,-1.80
2022-12-11T02:02:47.268Z,-1.80
2022-12-11T02:05:16.672Z,-1.80
2022-12-11T02:07:46.925Z,-1.80
2022-12-11T02:10:15.198Z,-1.80
2022-12-11T02:12:49.479Z,-1.70
2022-12-11T02:15:20.293Z,-1.80
2022-12-11T02:17:49.743Z,-1.90
2022-12-11T02:20:21.323Z,-1.80
2022-12-11T02:22:58.662Z,-1.90
2022-12-11T02:25:29.859Z,-1.90
2022-12-11T02:28:24.577Z,-1.90
2022-12-11T02:31:01.820Z,-1.90
2022-12-11T02:33:33.470Z,-2.00
2022-12-11T02:36:01.515Z,-1.90
2022-12-11T02:38:31.292Z,-1.90
2022-12-11T02:40:59.339Z,-1.90
2022-12-11T02:43:28.671Z,-2.00
2022-12-11T02:45:56.758Z,-1.90
2022-12-11T02:48:24.777Z,-1.90
2022-12-11T02:50:53.893Z,-1.90
2022-12-11T02:53:22.942Z,-1.90
2022-12-11T02:55:52.436Z,-1.90
2022-12-11T02:58:22.517Z,-1.90
2022-12-11T03:00:52.245Z,-2.00
2022-12-11T03:03:20.254Z,-1.90
2022-12-11T03:05:48.291Z,-1.90
2022-12-11T03:08:18.192Z,-1.90
2022-12-11T03:10:46.362Z,-2.00
2022-12-11T03:13:14.771Z,-2.10
2022-12-11T03:15:46.932Z,-2.00
2022-12-11T03:18:19.062Z,-2.10
2022-12-11T03:20:48.593Z,-2.20
2022-12-11T03:23:21.180Z,-2.10
2022-12-11T03:25:54.228Z,-2.00
2022-12-11T03:28:24.258Z,-2.00
2022-12-11T03:30:52.739Z,-2.00
2022-12-11T03:33:24.155Z,-1.90
2022-12-11T03:35:53.322Z,-1.90
2022-12-11T03:38:24.171Z,-2.10
2022-12-11T03:40:53.773Z,-2.20
2022-12-11T03:43:22.278Z,-2.20
2022-12-11T03:45:50.495Z,-2.30
2022-12-11T03:48:18.593Z,-2.30
2022-12-11T03:50:48.042Z,-2.30
2022-12-11T03:53:16.196Z,-2.30
2022-12-11T03:55:44.223Z,-2.40
2022-12-11T03:58:12.202Z,-2.40
2022-12-11T04:00:40.246Z,-2.40
2022-12-11T04:03:14.709Z,-2.40
2022-12-11T04:05:43.803Z,-2.40
2022-12-11T04:08:13.278Z,-2.40
2022-12-11T04:10:41.526Z,-2.40
2022-12-11T04:13:09.610Z,-2.40
2022-12-11T04:15:37.091Z,-2.40
2022-12-11T04:18:22.728Z,-2.40
2022-12-11T04:21:08.566Z,-2.40
2022-12-11T04:23:55.333Z,-2.40
2022-12-11T04:26:23.361Z,-2.40
2022-12-11T04:28:51.533Z,-2.40
2022-12-11T04:31:21.046Z,-2.40
2022-12-11T04:33:49.189Z,-2.30
2022-12-11T04:36:17.268Z,-2.30
2022-12-11T04:38:46.595Z,-2.30
2022-12-11T04:41:15.535Z,-2.40
2022-12-11T04:43:45.305Z,-2.40
2022-12-11T04:46:14.314Z,-2.50
2022-12-11T04:48:42.470Z,-2.50
2022-12-11T04:51:10.725Z,-2.50
2022-12-11T04:53:38.820Z,-2.50
2022-12-11T04:56:08.590Z,-2.60
2022-12-11T04:58:36.845Z,-2.60
2022-12-11T05:01:08.726Z,-2.60
2022-12-11T05:03:36.790Z,-2.70
2022-12-11T05:06:04.958Z,-2.70
2022-12-11T05:08:33.033Z,-2.70
2022-12-11T05:11:01.994Z,-2.70
2022-12-11T05:13:31.606Z,-2.80
2022-12-11T05:15:59.798Z,-2.80
2022-12-11T05:18:27.855Z,-2.80
2022-12-11T05:20:59.323Z,-2.80
2022-12-11T05:23:27.547Z,-2.80
2022-12-11T05:25:55.632Z,-2.80
2022-12-11T05:28:24.977Z,-2.90
2022-12-11T05:30:58.112Z,-2.90
2022-12-11T05:33:26.266Z,-2.90
2022-12-11T05:35:54.329Z,-2.90
2022-12-11T05:38:22.676Z,-2.90
2022-12-11T05:40:57.059Z,-2.90
2022-12-11T05:43:25.074Z,-2.90
2022-12-11T05:45:53.106Z,-3.00
2022-12-11T05:48:22.583Z,-3.00
2022-12-11T05:50:59.945Z,-3.10
2022-12-11T05:53:27.997Z,-3.10
2022-12-11T05:55:56.071Z,-3.10
2022-12-11T05:58:24.082Z,-3.10
2022-12-11T06:00:52.111Z,-3.10
2022-12-11T06:03:20.186Z,-3.00
2022-12-11T06:05:49.599Z,-3.00
2022-12-11T06:08:17.902Z,-3.00
2022-12-11T06:10:47.105Z,-3.10
2022-12-11T06:13:15.177Z,-3.10
2022-12-11T06:15:43.275Z,-3.10
2022-12-11T06:18:11.283Z,-3.20
2022-12-11T06:20:39.398Z,-3.30
2022-12-11T06:23:08.755Z,-3.40
2022-12-11T06:25:36.777Z,-3.40
2022-12-11T06:28:04.838Z,-3.50
2022-12-11T06:30:39.138Z,-3.50
2022-12-11T06:33:07.726Z,-3.50
2022-12-11T06:35:41.708Z,-3.50
2022-12-11T06:38:11.771Z,-3.60
2022-12-11T06:40:39.915Z,-3.60
2022-12-11T06:43:07.909Z,-3.60
2022-12-11T06:45:35.984Z,-3.60
2022-12-11T06:48:04.006Z,-3.60
2022-12-11T06:50:32.042Z,-3.50
2022-12-11T06:53:00.037Z,-3.50
2022-12-11T06:55:29.435Z,-3.40
2022-12-11T06:57:57.484Z,-3.30
2022-12-11T07:00:25.521Z,-3.30
2022-12-11T07:02:53.535Z,-3.20
2022-12-11T07:05:21.576Z,-3.20
2022-12-11T07:07:49.602Z,-3.20
2022-12-11T07:10:17.758Z,-3.20
2022-12-11T07:12:47.115Z,-3.20
2022-12-11T07:15:15.147Z,-3.20
2022-12-11T07:17:43.266Z,-3.10
2022-12-11T07:20:11.953Z,-3.10
2022-12-11T07:22:46.095Z,-3.00
2022-12-11T07:25:14.824Z,-3.00
2022-12-11T07:27:42.918Z,-3.00
2022-12-11T07:30:13.353Z,-3.00
2022-12-11T07:32:41.403Z,-3.00
2022-12-11T07:35:10.492Z,-3.00
2022-12-11T07:37:40.874Z,-3.10
2022-12-11T07:40:10.251Z,-3.10
2022-12-11T07:42:42.789Z,-3.10
2022-12-11T07:45:15.317Z,-3.00
2022-12-11T07:47:43.324Z,-2.90
2022-12-11T07:50:11.430Z,-2.90
2022-12-11T07:52:39.729Z,-2.80
2022-12-11T07:55:08.148Z,-2.80
2022-12-11T07:57:36.341Z,-2.70
2022-12-11T08:00:05.305Z,-2.80
2022-12-11T08:02:41.674Z,-2.90
2022-12-11T08:05:10.412Z,-2.90
2022-12-11T08:07:38.739Z,-3.00
2022-12-11T08:10:07.278Z,-3.10
2022-12-11T08:12:35.422Z,-3.00
2022-12-11T08:15:03.573Z,-3.00
2022-12-11T08:17:36.627Z,-3.00
2022-12-11T08:20:10.197Z,-2.90
2022-12-11T08:22:38.225Z,-2.80
2022-12-11T08:25:07.210Z,-2.80
2022-12-11T08:27:35.293Z,-2.80
2022-12-11T08:30:03.294Z,-2.80
2022-12-11T08:32:31.330Z,-2.80
2022-12-11T08:34:59.328Z,-2.80
2022-12-11T08:37:29.682Z,-2.80
2022-12-11T08:39:57.710Z,-2.80
2022-12-11T08:42:25.746Z,-2.80
2022-12-11T08:44:53.745Z,-2.80
2022-12-11T08:47:21.783Z,-2.70
2022-12-11T08:49:49.791Z,-2.70
2022-12-11T08:52:17.823Z,-2.60
2022-12-11T08:54:47.181Z,-2.50
2022-12-11T08:57:15.205Z,-2.40
2022-12-11T08:59:44.311Z,-2.50
2022-12-11T09:02:12.656Z,-2.60
2022-12-11T09:04:40.828Z,-2.50
2022-12-11T09:07:08.855Z,-2.50
2022-12-11T09:09:36.894Z,-2.40
2022-12-11T09:12:06.702Z,-2.40
2022-12-11T09:14:35.471Z,-2.50
2022-12-11T09:17:05.479Z,-2.40
2022-12-11T09:19:33.528Z,-2.30
2022-12-11T09:22:01.822Z,-2.30
2022-12-11T09:24:29.828Z,-2.30
2022-12-11T09:26:57.862Z,-2.40
2022-12-11T09:29:27.212Z,-2.30
2022-12-11T09:31:55.238Z,-2.30
2022-12-11T09:34:28.941Z,-2.30
2022-12-11T09:36:57.550Z,-2.20
2022-12-11T09:39:25.599Z,-2.20
2022-12-11T09:41:56.780Z,-2.20
2022-12-11T09:44:41.078Z,-2.30
2022-12-11T09:47:21.435Z,-2.20
2022-12-11T09:49:51.341Z,-2.20
2022-12-11T09:52:21.189Z,-2.20
2022-12-11T09:54:50.742Z,-2.10
2022-12-11T09:57:26.151Z,-2.00
2022-12-11T10:00:05.622Z,-1.90
2022-12-11T10:02:39.775Z,-1.90
2022-12-11T10:05:12.779Z,-1.80
2022-12-11T10:07:45.507Z,-1.80
2022-12-11T10:10:17.551Z,-1.80
2022-12-11T10:12:48.810Z,-1.80
2022-12-11T10:15:25.450Z,-1.70
2022-12-11T10:17:58.597Z,-1.70
2022-12-11T10:20:31.418Z,-1.70
2022-12-11T10:22:59.456Z,-1.70
2022-12-11T10:25:29.418Z,-1.60
2022-12-11T10:27:57.665Z,-1.50
2022-12-11T10:30:31.673Z,-1.30
2022-12-11T10:33:04.883Z,-1.30
2022-12-11T10:35:36.534Z,-1.10
2022-12-11T10:38:13.663Z,-1.00
2022-12-11T10:40:42.981Z,-0.90
2022-12-11T10:43:11.250Z,-0.80
2022-12-11T10:45:40.719Z,-0.80
2022-12-11T10:48:11.605Z,-0.80
2022-12-11T10:50:39.613Z,-0.80
2022-12-11T10:53:07.655Z,-0.70
2022-12-11T10:55:39.550Z,-0.70
2022-12-11T10:58:07.603Z,-0.80
2022-12-11T11:00:37.592Z,-0.80
2022-12-11T11:03:07.276Z,-0.70
2022-12-11T11:05:36.291Z,-0.80
2022-12-11T11:08:15.318Z,-0.80
2022-12-11T11:10:53.775Z,-0.70
2022-12-11T11:13:22.811Z,-0.70
2022-12-11T11:15:51.009Z,-0.60
2022-12-11T11:18:23.957Z,-0.70
2022-12-11T11:20:51.959Z,-0.70
2022-12-11T11:23:21.633Z,-0.70
2022-12-11T11:25:54.350Z,-0.60
2022-12-11T11:28:23.374Z,-0.60
2022-12-11T11:31:02.592Z,-0.50
2022-12-11T11:33:32.218Z,-0.50
2022-12-11T11:36:01.730Z,-0.40
2022-12-11T11:38:31.038Z,-0.40
2022-12-11T11:41:07.693Z,-0.50
2022-12-11T11:43:39.914Z,-0.50
2022-12-11T11:46:10.117Z,-0.50
2022-12-11T11:48:42.022Z,-0.50
2022-12-11T11:51:15.859Z,-0.50
2022-12-11T11:53:45.852Z,-0.50
2022-12-11T11:56:20.043Z,-0.50
2022-12-11T11:58:50.985Z,-0.60
2022-12-11T12:01:20.113Z,-0.50
2022-12-11T12:03:49.913Z,-0.50
2022-12-11T12:06:21.847Z,-0.50
2022-12-11T12:08:54.132Z,-0.50
2022-12-11T12:11:27.436Z,-0.40
2022-12-11T12:13:59.661Z,-0.30
2022-12-11T12:19:31.747Z,-0.40
2022-12-11T12:21:59.752Z,-0.30
2022-12-11T12:24:32.325Z,-0.40
2022-12-11T12:27:02.548Z,-0.40
2022-12-11T12:29:40.253Z,-0.40
2022-12-11T12:32:10.688Z,-0.40
2022-12-11T12:34:47.835Z,-0.50
2022-12-11T12:37:20.212Z,-0.60
2022-12-11T12:39:53.409Z,-0.60
2022-12-11T12:42:25.955Z,-0.60
2022-12-11T12:44:57.741Z,-0.60
2022-12-11T12:47:25.770Z,-0.70
2022-12-11T12:49:55.142Z,-0.70
2022-12-11T12:52:24.242Z,-0.70
2022-12-11T12:55:11.577Z,-0.70
2022-12-11T12:57:39.825Z,-0.70
2022-12-11T13:00:13.268Z,-0.70
2022-12-11T13:02:49.423Z,-0.70
2022-12-11T13:05:23.047Z,-0.80
2022-12-11T13:07:54.417Z,-0.70
2022-12-11T13:10:27.680Z,-0.70
2022-12-11T13:12:56.058Z,-0.60
2022-12-11T13:15:29.224Z,-0.50
2022-12-11T13:17:57.311Z,-0.50
2022-12-11T13:20:27.487Z,-0.40
2022-12-11T13:23:15.367Z,-0.40
2022-12-11T13:25:53.905Z,-0.30
2022-12-11T13:28:27.356Z,-0.30
2022-12-11T13:31:07.716Z,-0.20
2022-12-11T13:33:40.272Z,-0.30
2022-12-11T13:36:25.230Z,-0.30
2022-12-11T13:38:54.845Z,-0.40
2022-12-11T13:41:22.849Z,-0.50
2022-12-11T13:43:50.998Z,-0.40
2022-12-11T13:46:22.249Z,-0.50
2022-12-11T13:48:51.781Z,-0.50
2022-12-11T13:51:23.139Z,-0.60
2022-12-11T13:53:51.182Z,-0.60
2022-12-11T13:56:20.030Z,-0.70
2022-12-11T13:58:48.224Z,-0.70
2022-12-11T14:01:18.078Z,-0.70
2022-12-11T14:03:50.395Z,-0.70
2022-12-11T14:06:19.753Z,-0.80
2022-12-11T14:08:50.092Z,-0.80
2022-12-11T14:11:20.006Z,-0.80
2022-12-11T14:13:48.064Z,-0.90
2022-12-11T14:16:16.799Z,-1.00
2022-12-11T14:18:44.879Z,-1.00
2022-12-11T14:21:20.841Z,-1.00
2022-12-11T14:23:52.870Z,-1.00
2022-12-11T14:26:22.055Z,-1.10
2022-12-11T14:28:50.170Z,-1.10
2022-12-11T14:31:20.598Z,-1.10
2022-12-11T14:33:49.998Z,-1.20
2022-12-11T14:36:21.023Z,-1.20
2022-12-11T14:38:50.498Z,-1.30
2022-12-11T14:41:20.251Z,-1.30
2022-12-11T14:43:49.525Z,-1.30
2022-12-11T14:46:18.664Z,-1.30
2022-12-11T14:48:48.227Z,-1.30
2022-12-11T14:51:17.662Z,-1.40
2022-12-11T14:53:48.745Z,-1.40
2022-12-11T14:56:18.477Z,-1.50
2022-12-11T14:58:49.302Z,-1.40
2022-12-11T15:01:23.686Z,-1.50
2022-12-11T15:03:51.739Z,-1.50
2022-12-11T15:06:23.995Z,-1.50
2022-12-11T15:08:53.390Z,-1.50
2022-12-11T15:11:21.397Z,-1.60
2022-12-11T15:13:52.410Z,-1.50
2022-12-11T15:16:20.478Z,-1.60
2022-12-11T15:18:49.539Z,-1.50
2022-12-11T15:21:17.602Z,-1.50
2022-12-11T15:23:50.722Z,-1.40
2022-12-11T15:26:20.178Z,-1.40
2022-12-11T15:28:48.204Z,-1.40
2022-12-11T15:31:25.390Z,-1.50
2022-12-11T15:33:53.467Z,-1.40
2022-12-11T15:36:24.836Z,-1.40
2022-12-11T15:38:52.893Z,-1.40
2022-12-11T15:41:24.557Z,-1.40
2022-12-11T15:43:58.111Z,-1.40
2022-12-11T15:46:26.919Z,-1.30
2022-12-11T15:48:54.992Z,-1.40
2022-12-11T15:51:23.669Z,-1.40
2022-12-11T15:53:51.703Z,-1.40
2022-12-11T15:56:19.726Z,-1.30
2022-12-11T15:58:49.135Z,-1.30
2022-12-11T16:01:17.603Z,-1.40
2022-12-11T16:03:45.885Z,-1.40
2022-12-11T16:06:13.900Z,-1.40
2022-12-11T16:08:41.941Z,-1.40
2022-12-11T16:11:10.893Z,-1.40
2022-12-11T16:13:38.939Z,-1.30
2022-12-11T16:16:08.919Z,-1.40
2022-12-11T16:18:36.991Z,-1.40
2022-12-11T16:21:05.682Z,-1.40
2022-12-11T16:23:33.722Z,-1.30
2022-12-11T16:26:06.215Z,-1.30
2022-12-11T16:28:34.259Z,-1.30
2022-12-11T16:31:02.334Z,-1.30
2022-12-11T16:33:31.803Z,-1.20
2022-12-11T16:36:00.269Z,-1.30
2022-12-11T16:38:28.305Z,-1.30
2022-12-11T16:41:01.798Z,-1.30
2022-12-11T16:43:29.842Z,-1.30
2022-12-11T16:45:57.907Z,-1.30
2022-12-11T16:48:25.988Z,-1.30
2022-12-11T16:50:55.561Z,-1.30
2022-12-11T16:53:23.606Z,-1.30
2022-12-11T16:55:51.632Z,-1.30
2022-12-11T16:58:21.457Z,-1.30
2022-12-11T17:00:49.713Z,-1.30
2022-12-11T17:03:18.012Z,-1.20
2022-12-11T17:05:46.028Z,-1.20
2022-12-11T17:08:15.486Z,-1.10
2022-12-11T17:10:43.749Z,-1.00
2022-12-11T17:13:11.766Z,-1.00
2022-12-11T17:15:41.571Z,-0.90
2022-12-11T17:18:09.641Z,-1.00
2022-12-11T17:20:41.124Z,-1.10
2022-12-11T17:23:10.033Z,-1.20
2022-12-11T17:25:42.163Z,-1.20
2022-12-11T17:28:10.494Z,-1.20
2022-12-11T17:30:41.119Z,-1.20
2022-12-11T17:33:09.278Z,-1.20
2022-12-11T17:35:37.327Z,-1.20
2022-12-11T17:38:05.365Z,-1.20
2022-12-11T17:40:33.402Z,-1.30
2022-12-11T17:43:06.381Z,-1.30
2022-12-11T17:45:34.497Z,-1.30
2022-12-11T17:48:02.477Z,-1.30
2022-12-11T17:50:30.510Z,-1.30
2022-12-11T17:52:58.735Z,-1.30
2022-12-11T17:55:26.800Z,-1.30
2022-12-11T17:57:55.080Z,-1.20
2022-12-11T18:00:25.401Z,-1.30
2022-12-11T18:02:55.454Z,-1.20
2022-12-11T18:05:23.763Z,-1.30
2022-12-11T18:07:57.384Z,-1.30
2022-12-11T18:10:26.038Z,-1.30
2022-12-11T18:12:54.053Z,-1.30
2022-12-11T18:15:22.101Z,-1.30
2022-12-11T18:17:51.463Z,-1.30
2022-12-11T18:20:19.542Z,-1.30
2022-12-11T18:22:47.554Z,-1.20
2022-12-11T18:25:16.016Z,-1.20
2022-12-11T18:27:44.442Z,-1.30
2022-12-11T18:30:14.195Z,-1.30
2022-12-11T18:32:42.225Z,-1.20
2022-12-11T18:35:12.073Z,-1.30
2022-12-11T18:37:41.167Z,-1.30
2022-12-11T18:40:11.946Z,-1.30
2022-12-11T18:42:40.154Z,-1.30
2022-12-11T18:45:09.532Z,-1.20
2022-12-11T18:47:38.379Z,-1.20
2022-12-11T18:50:08.247Z,-1.20
2022-12-11T18:52:37.891Z,-1.20
2022-12-11T18:55:06.555Z,-1.20
2022-12-11T18:57:34.571Z,-1.20
2022-12-11T19:00:07.441Z,-1.20
2022-12-11T19:02:35.723Z,-1.20
2022-12-11T19:05:03.803Z,-1.20
2022-12-11T19:07:31.846Z,-1.20
2022-12-11T19:10:01.255Z,-1.30
2022-12-11T19:12:29.273Z,-1.20
2022-12-11T19:14:57.363Z,-1.20
2022-12-11T19:17:25.377Z,-1.20
2022-12-11T19:19:53.467Z,-1.20
2022-12-11T19:22:21.505Z,-1.10
2022-12-11T19:24:49.546Z,-1.20
2022-12-11T19:27:18.990Z,-1.20
2022-12-11T19:29:47.055Z,-1.20
2022-12-11T19:32:15.085Z,-1.20
2022-12-11T19:34:43.131Z,-1.20
2022-12-11T19:37:11.157Z,-1.10
2022-12-11T19:39:39.658Z,-1.10
2022-12-11T19:42:07.678Z,-1.00
2022-12-11T19:44:37.062Z,-0.90
2022-12-11T19:47:05.307Z,-1.00
2022-12-11T19:49:33.434Z,-1.00
2022-12-11T19:52:01.437Z,-1.10
2022-12-11T19:54:29.471Z,-1.00
2022-12-11T19:56:57.526Z,-1.10
2022-12-11T19:59:25.802Z,-1.20
2022-12-11T20:01:55.250Z,-1.20
2022-12-11T20:04:25.313Z,-1.20
2022-12-11T20:06:53.339Z,-1.30
2022-12-11T20:09:21.421Z,-1.30
2022-12-11T20:11:49.593Z,-1.30
2022-12-11T20:14:21.316Z,-1.30
2022-12-11T20:19:39.092Z,-1.30
2022-12-11T20:22:07.158Z,-1.40
2022-12-11T20:24:35.203Z,-1.40
2022-12-11T20:27:03.234Z,-1.40
2022-12-11T20:29:31.299Z,-1.40
2022-12-11T20:32:00.500Z,-1.40
2022-12-11T20:34:28.645Z,-1.30
2022-12-11T20:36:58.009Z,-1.40
2022-12-11T20:39:26.607Z,-1.40
2022-12-11T20:41:54.619Z,-1.40
2022-12-11T20:44:22.629Z,-1.40
2022-12-11T20:46:50.810Z,-1.40
2022-12-11T20:49:18.814Z,-1.50
2022-12-11T20:51:46.856Z,-1.50
2022-12-11T20:54:16.231Z,-1.40
2022-12-11T20:56:44.643Z,-1.40
2022-12-11T20:59:13.369Z,-1.40
2022-12-11T21:01:41.847Z,-1.50
2022-12-11T21:04:09.920Z,-1.40
2022-12-11T21:06:38.846Z,-1.30
2022-12-11T21:09:07.839Z,-1.20
2022-12-11T21:11:37.228Z,-1.20
2022-12-11T21:14:07.361Z,-1.20
2022-12-11T21:16:36.486Z,-1.10
2022-12-11T21:19:05.839Z,-1.10
2022-12-11T21:21:36.836Z,-1.10
2022-12-11T21:24:05.303Z,-1.10
2022-12-11T21:26:33.357Z,-1.10
2022-12-11T21:29:02.719Z,-1.10
2022-12-11T21:31:32.003Z,-1.10
2022-12-11T21:34:00.183Z,-1.10
2022-12-11T21:36:28.291Z,-1.10
2022-12-11T21:38:56.297Z,-1.00
2022-12-11T21:41:25.079Z,-0.80
2022-12-11T21:46:43.104Z,-0.70
2022-12-11T21:49:11.156Z,-0.70
2022-12-11T21:51:46.814Z,-0.70
2022-12-11T21:54:19.261Z,-0.60
2022-12-11T21:56:47.412Z,-0.50
2022-12-11T21:59:15.766Z,-0.50
2022-12-11T22:01:46.021Z,-0.40
2022-12-11T22:04:14.439Z,-0.40
2022-12-11T22:06:43.546Z,-0.30
2022-12-11T22:09:12.568Z,-0.30
2022-12-11T22:11:40.748Z,-0.30
2022-12-11T22:14:08.773Z,-0.20
2022-12-11T22:16:36.877Z,-0.10
2022-12-11T22:19:06.357Z,-0.10
2022-12-11T22:21:34.797Z,-0.10
2022-12-11T22:24:02.867Z,-0.10
2022-12-11T22:26:30.968Z,0.00
2022-12-11T22:28:59.036Z,0.00
2022-12-11T22:31:27.662Z,0.00
2022-12-11T22:33:55.920Z,0.10
2022-12-11T22:36:25.797Z,0.10
2022-12-11T22:38:53.829Z,0.10
2022-12-11T22:41:24.325Z,0.10
2022-12-11T22:43:52.361Z,0.00
2022-12-11T22:46:21.694Z,0.10
2022-12-11T22:48:49.766Z,0.10
2022-12-11T22:51:17.805Z,0.10
2022-12-11T22:53:47.172Z,0.10
2022-12-11T22:56:15.409Z,0.10
2022-12-11T22:58:44.154Z,0.20
2022-12-11T23:01:13.440Z,0.20
2022-12-11T23:03:41.507Z,0.20
2022-12-11T23:06:11.275Z,0.20
2022-12-11T23:08:39.757Z,0.10
2022-12-11T23:11:13.026Z,0.10
2022-12-11T23:13:41.499Z,0.20
2022-12-11T23:16:09.754Z,0.20
2022-12-11T23:18:37.878Z,0.10
2022-12-11T23:21:07.420Z,0.10
2022-12-11T23:23:35.429Z,0.00
2022-12-11T23:26:03.655Z,0.10
2022-12-11T23:28:33.115Z,0.10
2022-12-11T23:31:01.247Z,0.10
2022-12-11T23:33:29.814Z,0.10
2022-12-11T23:35:58.378Z,0.10
2022-12-11T23:38:26.474Z,0.10
2022-12-11T23:40:54.546Z,0.00
2022-12-11T23:43:22.557Z,-0.10
2022-12-11T23:45:51.991Z,-0.20
2022-12-11T23:48:20.018Z,-0.20
2022-12-11T23:50:48.212Z,-0.40
2022-12-11T23:53:16.252Z,-0.40
2022-12-11T23:55:45.063Z,-0.40
2022-12-11T23:58:13.082Z,-0.40
